sensor_id;sensor_type;location;lat;lon;timestamp;temperature;humidity
21635;DHT22;10979;48.306;9.830;2022-12-18T00:02:10;-5.30;99.90
21635;DHT22;10979;48.306;9.830;2022-12-18T00:04:36;-5.30;99.90
21635;DHT22;10979;48.306;9.830;2022-12-18T00:07:01;-5.20;99.90
21635;DHT22;10979;48.306;9.830;2022-12-18T00:09:27;-5.30;99.90
21635;DHT22;10979;48.306;9.830;2022-12-18T00:11:52;-5.30;99.90
21635;DHT22;10979;48.306;9.830;2022-12-18T00:14:18;-5.30;99.90
21635;DHT22;10979;48.306;9.830;2022-12-18T00:16:45;-5.30;99.90
21635;DHT22;10979;48.306;9.830;2022-12-18T00:19:11;-5.30;99.90
21635;DHT22;10979;48.306;9.830;2022-12-18T00:21:41;-5.30;99.90
21635;DHT22;10979;48.306;9.830;2022-12-18T00:24:07;-5.30;99.90
21635;DHT22;10979;48.306;9.830;2022-12-18T00:26:35;-5.30;99.90
21635;DHT22;10979;48.306;9.830;2022-12-18T00:29:03;-5.40;99.90
21635;DHT22;10979;48.306;9.830;2022-12-18T00:31:29;-5.40;99.90
21635;DHT22;10979;48.306;9.830;2022-12-18T00:33:56;-5.30;99.90
21635;DHT22;10979;48.306;9.830;2022-12-18T00:36:34;-5.30;99.90
21635;DHT22;10979;48.306;9.830;2022-12-18T00:39:01;-5.40;99.90
21635;DHT22;10979;48.306;9.830;2022-12-18T00:41:28;-5.40;99.90
21635;DHT22;10979;48.306;9.830;2022-12-18T00:44:14;-5.30;99.90
21635;DHT22;10979;48.306;9.830;2022-12-18T00:46:41;-5.40;99.90
21635;DHT22;10979;48.306;9.830;2022-12-18T00:49:06;-5.40;99.90
21635;DHT22;10979;48.306;9.830;2022-12-18T00:51:32;-5.40;99.90
21635;DHT22;10979;48.306;9.830;2022-12-18T00:53:58;-5.40;99.90
21635;DHT22;10979;48.306;9.830;2022-12-18T00:56:24;-5.40;99.90
21635;DHT22;10979;48.306;9.830;2022-12-18T00:58:49;-5.40;99.90
21635;DHT22;10979;48.306;9.830;2022-12-18T01:01:15;-5.40;99.90
21635;DHT22;10979;48.306;9.830;2022-12-18T01:03:41;-5.40;99.90
21635;DHT22;10979;48.306;9.830;2022-12-18T01:06:11;-5.40;99.90
21635;DHT22;10979;48.306;9.830;2022-12-18T01:08:37;-5.40;99.90
21635;DHT22;10979;48.306;9.830;2022-12-18T01:11:11;-5.40;99.90
21635;DHT22;10979;48.306;9.830;2022-12-18T01:13:37;-5.40;99.90
21635;DHT22;10979;48.306;9.830;2022-12-18T01:16:03;-5.40;99.90
21635;DHT22;10979;48.306;9.830;2022-12-18T01:18:29;-5.40;99.90
21635;DHT22;10979;48.306;9.830;2022-12-18T01:20:54;-5.40;99.90
21635;DHT22;10979;48.306;9.830;2022-12-18T01:23:20;-5.40;99.90
21635;DHT22;10979;48.306;9.830;2022-12-18T01:25:45;-5.40;99.90
21635;DHT22;10979;48.306;9.830;2022-12-18T01:28:11;-5.40;99.90
21635;DHT22;10979;48.306;9.830;2022-12-18T01:30:37;-5.40;99.90
21635;DHT22;10979;48.306;9.830;2022-12-18T01:33:04;-5.40;99.90
21635;DHT22;10979;48.306;9.830;2022-12-18T01:35:30;-5.40;99.90
21635;DHT22;10979;48.306;9.830;2022-12-18T01:37:55;-5.40;99.90
21635;DHT22;10979;48.306;9.830;2022-12-18T01:40:21;-5.50;99.90
21635;DHT22;10979;48.306;9.830;2022-12-18T01:42:53;-5.50;99.90
21635;DHT22;10979;48.306;9.830;2022-12-18T01:45:26;-5.50;99.90
21635;DHT22;10979;48.306;9.830;2022-12-18T01:48:05;-5.40;99.90
21635;DHT22;10979;48.306;9.830;2022-12-18T01:50:40;-5.40;99.90
21635;DHT22;10979;48.306;9.830;2022-12-18T01:53:11;-5.40;99.90
21635;DHT22;10979;48.306;9.830;2022-12-18T01:55:45;-5.40;99.90
21635;DHT22;10979;48.306;9.830;2022-12-18T01:58:12;-5.40;99.90
21635;DHT22;10979;48.306;9.830;2022-12-18T02:00:38;-5.40;99.90
21635;DHT22;10979;48.306;9.830;2022-12-18T02:03:03;-5.50;99.90
21635;DHT22;10979;48.306;9.830;2022-12-18T02:05:49;-5.50;99.90
21635;DHT22;10979;48.306;9.830;2022-12-18T02:14:16;-5.60;99.90
21635;DHT22;10979;48.306;9.830;2022-12-18T02:22:57;-5.50;99.90
21635;DHT22;10979;48.306;9.830;2022-12-18T02:26:05;-5.60;99.90
21635;DHT22;10979;48.306;9.830;2022-12-18T02:28:36;-5.60;99.90
21635;DHT22;10979;48.306;9.830;2022-12-18T02:31:04;-5.60;99.90
21635;DHT22;10979;48.306;9.830;2022-12-18T02:33:33;-5.60;99.90
21635;DHT22;10979;48.306;9.830;2022-12-18T02:36:00;-5.60;99.90
21635;DHT22;10979;48.306;9.830;2022-12-18T02:38:28;-5.60;99.90
21635;DHT22;10979;48.306;9.830;2022-12-18T02:40:55;-5.50;99.90
21635;DHT22;10979;48.306;9.830;2022-12-18T02:43:22;-5.70;99.90
21635;DHT22;10979;48.306;9.830;2022-12-18T02:45:56;-5.60;99.90
21635;DHT22;10979;48.306;9.830;2022-12-18T02:48:30;-5.70;99.90
21635;DHT22;10979;48.306;9.830;2022-12-18T02:51:29;-5.70;99.90
21635;DHT22;10979;48.306;9.830;2022-12-18T02:54:28;-5.70;99.90
21635;DHT22;10979;48.306;9.830;2022-12-18T02:56:58;-5.60;99.90
21635;DHT22;10979;48.306;9.830;2022-12-18T02:59:41;-5.70;99.90
21635;DHT22;10979;48.306;9.830;2022-12-18T03:02:22;-5.70;99.90
21635;DHT22;10979;48.306;9.830;2022-12-18T03:04:59;-5.70;99.90
21635;DHT22;10979;48.306;9.830;2022-12-18T03:07:35;-5.60;99.90
21635;DHT22;10979;48.306;9.830;2022-12-18T03:10:02;-5.70;99.90
21635;DHT22;10979;48.306;9.830;2022-12-18T03:12:34;-5.60;99.90
21635;DHT22;10979;48.306;9.830;2022-12-18T03:17:33;-5.60;99.90
21635;DHT22;10979;48.306;9.830;2022-12-18T03:20:04;-5.60;99.90
21635;DHT22;10979;48.306;9.830;2022-12-18T03:22:32;-5.60;99.90
21635;DHT22;10979;48.306;9.830;2022-12-18T03:25:02;-5.60;99.90
21635;DHT22;10979;48.306;9.830;2022-12-18T03:27:30;-5.60;99.90
21635;DHT22;10979;48.306;9.830;2022-12-18T03:30:05;-5.60;99.90
21635;DHT22;10979;48.306;9.830;2022-12-18T03:33:09;-5.60;99.90
21635;DHT22;10979;48.306;9.830;2022-12-18T03:35:39;-5.50;99.90
21635;DHT22;10979;48.306;9.830;2022-12-18T03:38:06;-5.60;99.90
21635;DHT22;10979;48.306;9.830;2022-12-18T03:43:11;-5.50;99.90
21635;DHT22;10979;48.306;9.830;2022-12-18T03:45:53;-5.50;99.90
21635;DHT22;10979;48.306;9.830;2022-12-18T03:48:28;-5.50;99.90
21635;DHT22;10979;48.306;9.830;2022-12-18T03:51:02;-5.50;99.90
21635;DHT22;10979;48.306;9.830;2022-12-18T03:56:02;-5.50;99.90
21635;DHT22;10979;48.306;9.830;2022-12-18T03:58:31;-5.50;99.90
21635;DHT22;10979;48.306;9.830;2022-12-18T04:01:01;-5.50;99.90
21635;DHT22;10979;48.306;9.830;2022-12-18T04:03:29;-5.60;99.90
21635;DHT22;10979;48.306;9.830;2022-12-18T04:05:59;-5.50;99.90
21635;DHT22;10979;48.306;9.830;2022-12-18T04:08:25;-5.50;99.90
21635;DHT22;10979;48.306;9.830;2022-12-18T04:10:51;-5.50;99.90
21635;DHT22;10979;48.306;9.830;2022-12-18T04:13:25;-5.60;99.90
21635;DHT22;10979;48.306;9.830;2022-12-18T04:15:53;-5.50;99.90
21635;DHT22;10979;48.306;9.830;2022-12-18T04:18:18;-5.60;99.90
21635;DHT22;10979;48.306;9.830;2022-12-18T04:20:44;-5.60;99.90
21635;DHT22;10979;48.306;9.830;2022-12-18T04:23:10;-5.60;99.90
21635;DHT22;10979;48.306;9.830;2022-12-18T04:25:35;-5.60;99.90
21635;DHT22;10979;48.306;9.830;2022-12-18T04:28:01;-5.60;99.90
21635;DHT22;10979;48.306;9.830;2022-12-18T04:30:26;-5.60;99.90
21635;DHT22;10979;48.306;9.830;2022-12-18T04:32:52;-5.60;99.90
21635;DHT22;10979;48.306;9.830;2022-12-18T04:35:17;-5.70;99.90
21635;DHT22;10979;48.306;9.830;2022-12-18T04:37:43;-5.70;99.90
21635;DHT22;10979;48.306;9.830;2022-12-18T04:40:09;-5.70;99.90
21635;DHT22;10979;48.306;9.830;2022-12-18T04:42:34;-5.70;99.90
21635;DHT22;10979;48.306;9.830;2022-12-18T04:45:00;-5.60;99.90
21635;DHT22;10979;48.306;9.830;2022-12-18T04:47:25;-5.60;99.90
21635;DHT22;10979;48.306;9.830;2022-12-18T04:49:51;-5.70;99.90
21635;DHT22;10979;48.306;9.830;2022-12-18T04:52:16;-5.70;99.90
21635;DHT22;10979;48.306;9.830;2022-12-18T04:54:42;-5.70;99.90
21635;DHT22;10979;48.306;9.830;2022-12-18T04:57:07;-5.70;99.90
21635;DHT22;10979;48.306;9.830;2022-12-18T04:59:33;-5.70;99.90
21635;DHT22;10979;48.306;9.830;2022-12-18T05:01:59;-5.70;99.90
21635;DHT22;10979;48.306;9.830;2022-12-18T05:04:24;-5.70;99.90
21635;DHT22;10979;48.306;9.830;2022-12-18T05:06:50;-5.70;99.90
21635;DHT22;10979;48.306;9.830;2022-12-18T05:09:15;-5.70;99.90
21635;DHT22;10979;48.306;9.830;2022-12-18T05:11:41;-5.70;99.90
21635;DHT22;10979;48.306;9.830;2022-12-18T05:14:06;-5.70;99.90
21635;DHT22;10979;48.306;9.830;2022-12-18T05:16:32;-5.70;99.90
21635;DHT22;10979;48.306;9.830;2022-12-18T05:18:57;-5.70;99.90
21635;DHT22;10979;48.306;9.830;2022-12-18T05:21:23;-5.70;99.90
21635;DHT22;10979;48.306;9.830;2022-12-18T05:23:48;-5.70;99.90
21635;DHT22;10979;48.306;9.830;2022-12-18T05:26:16;-5.70;99.90
21635;DHT22;10979;48.306;9.830;2022-12-18T05:28:42;-5.70;99.90
21635;DHT22;10979;48.306;9.830;2022-12-18T05:31:09;-5.70;99.90
21635;DHT22;10979;48.306;9.830;2022-12-18T05:33:34;-5.70;99.90
21635;DHT22;10979;48.306;9.830;2022-12-18T05:36:02;-5.70;99.90
21635;DHT22;10979;48.306;9.830;2022-12-18T05:38:29;-5.70;99.90
21635;DHT22;10979;48.306;9.830;2022-12-18T05:40:56;-5.70;99.90
21635;DHT22;10979;48.306;9.830;2022-12-18T05:43:22;-5.70;99.90
21635;DHT22;10979;48.306;9.830;2022-12-18T05:45:49;-5.70;99.90
21635;DHT22;10979;48.306;9.830;2022-12-18T05:48:15;-5.70;99.90
21635;DHT22;10979;48.306;9.830;2022-12-18T05:50:42;-5.70;99.90
21635;DHT22;10979;48.306;9.830;2022-12-18T05:53:11;-5.70;99.90
21635;DHT22;10979;48.306;9.830;2022-12-18T05:55:38;-5.70;99.90
21635;DHT22;10979;48.306;9.830;2022-12-18T05:58:05;-5.70;99.90
21635;DHT22;10979;48.306;9.830;2022-12-18T06:00:32;-5.70;99.90
21635;DHT22;10979;48.306;9.830;2022-12-18T06:02:59;-5.70;99.90
21635;DHT22;10979;48.306;9.830;2022-12-18T06:05:25;-5.80;99.90
21635;DHT22;10979;48.306;9.830;2022-12-18T06:07:50;-5.80;99.90
21635;DHT22;10979;48.306;9.830;2022-12-18T06:10:16;-5.70;99.90
21635;DHT22;10979;48.306;9.830;2022-12-18T06:12:42;-5.70;99.90
21635;DHT22;10979;48.306;9.830;2022-12-18T06:15:08;-5.70;99.90
21635;DHT22;10979;48.306;9.830;2022-12-18T06:17:34;-5.70;99.90
21635;DHT22;10979;48.306;9.830;2022-12-18T06:20:00;-5.70;99.90
21635;DHT22;10979;48.306;9.830;2022-12-18T06:22:26;-5.80;99.90
21635;DHT22;10979;48.306;9.830;2022-12-18T06:24:52;-5.80;99.90
21635;DHT22;10979;48.306;9.830;2022-12-18T06:27:18;-5.80;99.90
21635;DHT22;10979;48.306;9.830;2022-12-18T06:29:43;-5.80;99.90
21635;DHT22;10979;48.306;9.830;2022-12-18T06:32:09;-5.80;99.90
21635;DHT22;10979;48.306;9.830;2022-12-18T06:34:37;-5.80;99.90
21635;DHT22;10979;48.306;9.830;2022-12-18T06:37:03;-5.80;99.90
21635;DHT22;10979;48.306;9.830;2022-12-18T06:39:29;-5.80;99.90
21635;DHT22;10979;48.306;9.830;2022-12-18T06:41:54;-5.80;99.90
21635;DHT22;10979;48.306;9.830;2022-12-18T06:44:20;-5.80;99.90
21635;DHT22;10979;48.306;9.830;2022-12-18T06:46:45;-5.80;99.90
21635;DHT22;10979;48.306;9.830;2022-12-18T06:49:11;-5.80;99.90
21635;DHT22;10979;48.306;9.830;2022-12-18T06:51:37;-5.70;99.90
21635;DHT22;10979;48.306;9.830;2022-12-18T06:54:03;-5.80;99.90
21635;DHT22;10979;48.306;9.830;2022-12-18T06:56:29;-5.80;99.90
21635;DHT22;10979;48.306;9.830;2022-12-18T06:58:54;-5.80;99.90
21635;DHT22;10979;48.306;9.830;2022-12-18T07:01:21;-5.80;99.90
21635;DHT22;10979;48.306;9.830;2022-12-18T07:03:47;-5.80;99.90
21635;DHT22;10979;48.306;9.830;2022-12-18T07:06:19;-5.80;99.90
21635;DHT22;10979;48.306;9.830;2022-12-18T07:08:45;-5.80;99.90
21635;DHT22;10979;48.306;9.830;2022-12-18T07:11:12;-5.80;99.90
21635;DHT22;10979;48.306;9.830;2022-12-18T07:13:37;-5.70;99.90
21635;DHT22;10979;48.306;9.830;2022-12-18T07:16:14;-5.70;99.90
21635;DHT22;10979;48.306;9.830;2022-12-18T07:18:41;-5.70;99.90
21635;DHT22;10979;48.306;9.830;2022-12-18T07:21:08;-5.70;99.90
21635;DHT22;10979;48.306;9.830;2022-12-18T07:23:34;-5.70;99.90
21635;DHT22;10979;48.306;9.830;2022-12-18T07:26:05;-5.60;99.90
21635;DHT22;10979;48.306;9.830;2022-12-18T07:28:32;-5.70;99.90
21635;DHT22;10979;48.306;9.830;2022-12-18T07:31:01;-5.60;99.90
21635;DHT22;10979;48.306;9.830;2022-12-18T07:33:27;-5.60;99.90
21635;DHT22;10979;48.306;9.830;2022-12-18T07:35:53;-5.60;99.90
21635;DHT22;10979;48.306;9.830;2022-12-18T07:38:18;-5.60;99.90
21635;DHT22;10979;48.306;9.830;2022-12-18T07:40:44;-5.50;99.90
21635;DHT22;10979;48.306;9.830;2022-12-18T07:43:09;-5.40;99.90
21635;DHT22;10979;48.306;9.830;2022-12-18T07:45:35;-5.50;99.90
21635;DHT22;10979;48.306;9.830;2022-12-18T07:48:00;-5.50;99.90
21635;DHT22;10979;48.306;9.830;2022-12-18T07:50:26;-5.40;99.90
21635;DHT22;10979;48.306;9.830;2022-12-18T07:52:51;-5.40;99.90
21635;DHT22;10979;48.306;9.830;2022-12-18T07:55:17;-5.40;99.90
21635;DHT22;10979;48.306;9.830;2022-12-18T07:57:42;-5.30;99.90
21635;DHT22;10979;48.306;9.830;2022-12-18T08:00:08;-5.30;99.90
21635;DHT22;10979;48.306;9.830;2022-12-18T08:02:34;-5.30;99.90
21635;DHT22;10979;48.306;9.830;2022-12-18T08:04:59;-5.20;99.90
21635;DHT22;10979;48.306;9.830;2022-12-18T08:07:25;-5.10;99.90
21635;DHT22;10979;48.306;9.830;2022-12-18T08:09:51;-5.10;99.90
21635;DHT22;10979;48.306;9.830;2022-12-18T08:12:16;-5.10;99.90
21635;DHT22;10979;48.306;9.830;2022-12-18T08:14:42;-5.10;99.90
21635;DHT22;10979;48.306;9.830;2022-12-18T08:17:07;-5.10;99.90
21635;DHT22;10979;48.306;9.830;2022-12-18T08:19:33;-5.10;99.90
21635;DHT22;10979;48.306;9.830;2022-12-18T08:21:58;-5.00;99.90
21635;DHT22;10979;48.306;9.830;2022-12-18T08:24:24;-5.00;99.90
21635;DHT22;10979;48.306;9.830;2022-12-18T08:26:49;-5.00;99.90
21635;DHT22;10979;48.306;9.830;2022-12-18T08:29:16;-5.00;99.90
21635;DHT22;10979;48.306;9.830;2022-12-18T08:31:41;-5.00;99.90
21635;DHT22;10979;48.306;9.830;2022-12-18T08:34:07;-4.90;99.90
21635;DHT22;10979;48.306;9.830;2022-12-18T08:36:33;-4.90;99.90
21635;DHT22;10979;48.306;9.830;2022-12-18T08:38:58;-4.80;99.90
21635;DHT22;10979;48.306;9.830;2022-12-18T08:41:24;-4.80;99.90
21635;DHT22;10979;48.306;9.830;2022-12-18T08:43:50;-4.80;99.90
21635;DHT22;10979;48.306;9.830;2022-12-18T08:46:37;-4.70;99.90
21635;DHT22;10979;48.306;9.830;2022-12-18T08:49:03;-4.70;99.90
21635;DHT22;10979;48.306;9.830;2022-12-18T08:51:29;-4.70;99.90
21635;DHT22;10979;48.306;9.830;2022-12-18T08:53:55;-4.70;99.90
21635;DHT22;10979;48.306;9.830;2022-12-18T08:56:20;-4.70;99.90
21635;DHT22;10979;48.306;9.830;2022-12-18T08:58:46;-4.50;99.90
21635;DHT22;10979;48.306;9.830;2022-12-18T09:01:12;-4.50;99.90
21635;DHT22;10979;48.306;9.830;2022-12-18T09:03:39;-4.50;99.90
21635;DHT22;10979;48.306;9.830;2022-12-18T09:06:05;-4.40;99.90
21635;DHT22;10979;48.306;9.830;2022-12-18T09:08:30;-4.30;99.90
21635;DHT22;10979;48.306;9.830;2022-12-18T09:10:56;-4.20;99.90
21635;DHT22;10979;48.306;9.830;2022-12-18T09:13:22;-4.30;99.90
21635;DHT22;10979;48.306;9.830;2022-12-18T09:15:49;-4.30;99.90
21635;DHT22;10979;48.306;9.830;2022-12-18T09:18:17;-4.20;99.90
21635;DHT22;10979;48.306;9.830;2022-12-18T09:20:43;-4.10;99.90
21635;DHT22;10979;48.306;9.830;2022-12-18T09:23:09;-4.20;99.90
21635;DHT22;10979;48.306;9.830;2022-12-18T09:25:35;-4.10;99.90
21635;DHT22;10979;48.306;9.830;2022-12-18T09:28:03;-4.10;99.90
21635;DHT22;10979;48.306;9.830;2022-12-18T09:30:29;-4.10;99.90
21635;DHT22;10979;48.306;9.830;2022-12-18T09:32:55;-4.10;99.90
21635;DHT22;10979;48.306;9.830;2022-12-18T09:35:21;-4.10;99.90
21635;DHT22;10979;48.306;9.830;2022-12-18T09:37:46;-4.00;99.90
21635;DHT22;10979;48.306;9.830;2022-12-18T09:40:15;-4.00;99.90
21635;DHT22;10979;48.306;9.830;2022-12-18T09:42:45;-4.00;99.90
21635;DHT22;10979;48.306;9.830;2022-12-18T09:45:15;-4.00;99.90
21635;DHT22;10979;48.306;9.830;2022-12-18T09:47:43;-4.00;99.90
21635;DHT22;10979;48.306;9.830;2022-12-18T09:50:30;-3.80;99.90
21635;DHT22;10979;48.306;9.830;2022-12-18T09:53:02;-3.60;99.90
21635;DHT22;10979;48.306;9.830;2022-12-18T09:55:37;-3.60;99.90
21635;DHT22;10979;48.306;9.830;2022-12-18T10:00:35;-3.70;99.90
21635;DHT22;10979;48.306;9.830;2022-12-18T10:03:13;-3.80;99.90
21635;DHT22;10979;48.306;9.830;2022-12-18T10:06:01;-3.50;99.90
21635;DHT22;10979;48.306;9.830;2022-12-18T10:17:07;-3.40;99.90
21635;DHT22;10979;48.306;9.830;2022-12-18T10:19:52;-3.50;99.90
21635;DHT22;10979;48.306;9.830;2022-12-18T10:27:40;-3.50;99.90
21635;DHT22;10979;48.306;9.830;2022-12-18T10:30:14;-3.50;99.90
21635;DHT22;10979;48.306;9.830;2022-12-18T10:32:40;-3.30;99.90
21635;DHT22;10979;48.306;9.830;2022-12-18T10:35:16;-3.40;99.90
21635;DHT22;10979;48.306;9.830;2022-12-18T10:38:03;-3.50;99.90
21635;DHT22;10979;48.306;9.830;2022-12-18T10:40:29;-3.70;99.90
21635;DHT22;10979;48.306;9.830;2022-12-18T10:45:30;-3.50;99.90
21635;DHT22;10979;48.306;9.830;2022-12-18T10:47:55;-3.50;99.90
21635;DHT22;10979;48.306;9.830;2022-12-18T10:50:30;-3.20;99.90
21635;DHT22;10979;48.306;9.830;2022-12-18T10:52:59;-3.20;99.90
21635;DHT22;10979;48.306;9.830;2022-12-18T10:55:37;-3.50;99.90
21635;DHT22;10979;48.306;9.830;2022-12-18T11:03:46;-3.50;99.90
21635;DHT22;10979;48.306;9.830;2022-12-18T11:06:17;-3.50;99.90
21635;DHT22;10979;48.306;9.830;2022-12-18T11:08:57;-3.60;99.90
21635;DHT22;10979;48.306;9.830;2022-12-18T11:11:23;-3.60;99.90
21635;DHT22;10979;48.306;9.830;2022-12-18T11:14:03;-3.40;99.90
21635;DHT22;10979;48.306;9.830;2022-12-18T11:16:33;-3.20;99.90
21635;DHT22;10979;48.306;9.830;2022-12-18T11:22:00;-3.50;99.90
21635;DHT22;10979;48.306;9.830;2022-12-18T11:26:59;-3.40;99.90
21635;DHT22;10979;48.306;9.830;2022-12-18T11:29:34;-3.30;99.90
21635;DHT22;10979;48.306;9.830;2022-12-18T11:34:44;-3.30;99.90
21635;DHT22;10979;48.306;9.830;2022-12-18T11:37:13;-3.20;99.90
21635;DHT22;10979;48.306;9.830;2022-12-18T11:39:46;-2.90;99.90
21635;DHT22;10979;48.306;9.830;2022-12-18T11:48:01;-2.70;99.90
21635;DHT22;10979;48.306;9.830;2022-12-18T11:52:58;-2.70;99.90
21635;DHT22;10979;48.306;9.830;2022-12-18T11:58:29;-3.00;99.90
21635;DHT22;10979;48.306;9.830;2022-12-18T12:01:28;-3.10;99.90
21635;DHT22;10979;48.306;9.830;2022-12-18T12:09:57;-3.10;99.90
21635;DHT22;10979;48.306;9.830;2022-12-18T12:12:30;-3.10;99.90
21635;DHT22;10979;48.306;9.830;2022-12-18T12:18:06;-3.00;99.90
21635;DHT22;10979;48.306;9.830;2022-12-18T12:20:46;-3.10;99.90
21635;DHT22;10979;48.306;9.830;2022-12-18T12:23:26;-2.80;99.90
21635;DHT22;10979;48.306;9.830;2022-12-18T12:26:07;-3.00;99.90
21635;DHT22;10979;48.306;9.830;2022-12-18T12:31:26;-3.00;99.90
21635;DHT22;10979;48.306;9.830;2022-12-18T12:34:14;-3.10;99.90
21635;DHT22;10979;48.306;9.830;2022-12-18T12:39:30;-3.30;99.90
21635;DHT22;10979;48.306;9.830;2022-12-18T12:41:57;-3.60;99.90
21635;DHT22;10979;48.306;9.830;2022-12-18T12:44:45;-3.40;99.90
21635;DHT22;10979;48.306;9.830;2022-12-18T12:47:32;-3.40;99.90
21635;DHT22;10979;48.306;9.830;2022-12-18T12:50:01;-3.30;99.90
21635;DHT22;10979;48.306;9.830;2022-12-18T12:52:32;-3.20;99.90
21635;DHT22;10979;48.306;9.830;2022-12-18T12:55:00;-3.30;99.90
21635;DHT22;10979;48.306;9.830;2022-12-18T13:00:22;-3.50;99.90
21635;DHT22;10979;48.306;9.830;2022-12-18T13:08:21;-3.50;99.90
21635;DHT22;10979;48.306;9.830;2022-12-18T13:10:47;-3.40;99.90
21635;DHT22;10979;48.306;9.830;2022-12-18T13:13:14;-3.60;99.90
21635;DHT22;10979;48.306;9.830;2022-12-18T13:15:45;-3.70;99.90
21635;DHT22;10979;48.306;9.830;2022-12-18T13:18:19;-3.70;99.90
21635;DHT22;10979;48.306;9.830;2022-12-18T13:26:35;-3.60;99.90
21635;DHT22;10979;48.306;9.830;2022-12-18T13:31:15;-3.60;99.90
21635;DHT22;10979;48.306;9.830;2022-12-18T13:34:22;-3.50;99.90
21635;DHT22;10979;48.306;9.830;2022-12-18T13:36:48;-3.60;99.90
21635;DHT22;10979;48.306;9.830;2022-12-18T13:41:50;-3.70;99.90
21635;DHT22;10979;48.306;9.830;2022-12-18T13:46:53;-3.90;99.90
21635;DHT22;10979;48.306;9.830;2022-12-18T13:49:40;-3.80;99.90
21635;DHT22;10979;48.306;9.830;2022-12-18T13:52:28;-3.80;99.90
21635;DHT22;10979;48.306;9.830;2022-12-18T13:54:56;-3.70;99.90
21635;DHT22;10979;48.306;9.830;2022-12-18T13:57:29;-3.80;99.90
21635;DHT22;10979;48.306;9.830;2022-12-18T13:59:55;-3.80;99.90
21635;DHT22;10979;48.306;9.830;2022-12-18T14:02:26;-3.80;99.90
21635;DHT22;10979;48.306;9.830;2022-12-18T14:04:53;-3.80;99.90
21635;DHT22;10979;48.306;9.830;2022-12-18T14:07:22;-3.60;99.90
21635;DHT22;10979;48.306;9.830;2022-12-18T14:09:53;-3.70;99.90
21635;DHT22;10979;48.306;9.830;2022-12-18T14:12:26;-3.70;99.90
21635;DHT22;10979;48.306;9.830;2022-12-18T14:17:46;-3.90;99.90
21635;DHT22;10979;48.306;9.830;2022-12-18T14:20:14;-3.90;99.90
21635;DHT22;10979;48.306;9.830;2022-12-18T14:22:44;-3.80;99.90
21635;DHT22;10979;48.306;9.830;2022-12-18T14:25:23;-3.90;99.90
21635;DHT22;10979;48.306;9.830;2022-12-18T14:33:10;-3.90;99.90
21635;DHT22;10979;48.306;9.830;2022-12-18T14:35:38;-3.80;99.90
21635;DHT22;10979;48.306;9.830;2022-12-18T14:40:43;-4.10;99.90
21635;DHT22;10979;48.306;9.830;2022-12-18T14:43:12;-4.10;99.90
21635;DHT22;10979;48.306;9.830;2022-12-18T14:45:43;-4.10;99.90
21635;DHT22;10979;48.306;9.830;2022-12-18T14:51:17;-4.10;99.90
21635;DHT22;10979;48.306;9.830;2022-12-18T14:53:45;-4.10;99.90
21635;DHT22;10979;48.306;9.830;2022-12-18T14:56:18;-4.10;99.90
21635;DHT22;10979;48.306;9.830;2022-12-18T14:58:50;-4.20;99.90
21635;DHT22;10979;48.306;9.830;2022-12-18T15:01:23;-4.30;99.90
21635;DHT22;10979;48.306;9.830;2022-12-18T15:03:50;-4.30;99.90
21635;DHT22;10979;48.306;9.830;2022-12-18T15:06:29;-4.30;99.90
21635;DHT22;10979;48.306;9.830;2022-12-18T15:08:56;-4.40;99.90
21635;DHT22;10979;48.306;9.830;2022-12-18T15:11:28;-4.40;99.90
21635;DHT22;10979;48.306;9.830;2022-12-18T15:13:54;-4.30;99.90
21635;DHT22;10979;48.306;9.830;2022-12-18T15:16:19;-4.40;99.90
21635;DHT22;10979;48.306;9.830;2022-12-18T15:18:45;-4.30;99.90
21635;DHT22;10979;48.306;9.830;2022-12-18T15:21:17;-4.40;99.90
21635;DHT22;10979;48.306;9.830;2022-12-18T15:26:10;-4.60;99.90
21635;DHT22;10979;48.306;9.830;2022-12-18T15:28:56;-4.60;99.90
21635;DHT22;10979;48.306;9.830;2022-12-18T15:31:34;-4.60;99.90
21635;DHT22;10979;48.306;9.830;2022-12-18T15:34:10;-4.60;99.90
21635;DHT22;10979;48.306;9.830;2022-12-18T15:36:36;-4.60;99.90
21635;DHT22;10979;48.306;9.830;2022-12-18T15:39:02;-4.60;99.90
21635;DHT22;10979;48.306;9.830;2022-12-18T15:41:28;-4.60;99.90
21635;DHT22;10979;48.306;9.830;2022-12-18T15:43:56;-4.60;99.90
21635;DHT22;10979;48.306;9.830;2022-12-18T15:46:23;-4.70;99.90
21635;DHT22;10979;48.306;9.830;2022-12-18T15:48:54;-4.70;99.90
21635;DHT22;10979;48.306;9.830;2022-12-18T15:51:26;-4.70;99.90
21635;DHT22;10979;48.306;9.830;2022-12-18T15:53:55;-4.70;99.90
21635;DHT22;10979;48.306;9.830;2022-12-18T15:56:22;-4.70;99.90
21635;DHT22;10979;48.306;9.830;2022-12-18T15:59:20;-4.70;99.90
21635;DHT22;10979;48.306;9.830;2022-12-18T16:01:48;-4.70;99.90
21635;DHT22;10979;48.306;9.830;2022-12-18T16:04:16;-4.70;99.90
21635;DHT22;10979;48.306;9.830;2022-12-18T16:06:42;-4.60;99.90
21635;DHT22;10979;48.306;9.830;2022-12-18T16:09:07;-4.70;99.90
21635;DHT22;10979;48.306;9.830;2022-12-18T16:11:35;-4.60;99.90
21635;DHT22;10979;48.306;9.830;2022-12-18T16:14:24;-4.60;99.90
21635;DHT22;10979;48.306;9.830;2022-12-18T16:16:53;-4.70;99.90
21635;DHT22;10979;48.306;9.830;2022-12-18T16:19:20;-4.70;99.90
21635;DHT22;10979;48.306;9.830;2022-12-18T16:21:47;-4.70;99.90
21635;DHT22;10979;48.306;9.830;2022-12-18T16:24:22;-4.80;99.90
21635;DHT22;10979;48.306;9.830;2022-12-18T16:26:49;-4.80;99.90
21635;DHT22;10979;48.306;9.830;2022-12-18T16:29:16;-4.80;99.90
21635;DHT22;10979;48.306;9.830;2022-12-18T16:31:42;-4.80;99.90
21635;DHT22;10979;48.306;9.830;2022-12-18T16:36:36;-4.80;99.90
21635;DHT22;10979;48.306;9.830;2022-12-18T16:39:02;-4.70;99.90
21635;DHT22;10979;48.306;9.830;2022-12-18T16:41:28;-4.70;99.90
21635;DHT22;10979;48.306;9.830;2022-12-18T16:43:57;-4.70;99.90
21635;DHT22;10979;48.306;9.830;2022-12-18T16:46:22;-4.80;99.90
21635;DHT22;10979;48.306;9.830;2022-12-18T16:48:48;-4.80;99.90
21635;DHT22;10979;48.306;9.830;2022-12-18T16:51:13;-4.80;99.90
21635;DHT22;10979;48.306;9.830;2022-12-18T16:53:39;-4.90;99.90
21635;DHT22;10979;48.306;9.830;2022-12-18T16:56:05;-4.90;99.90
21635;DHT22;10979;48.306;9.830;2022-12-18T16:58:31;-4.90;99.90
21635;DHT22;10979;48.306;9.830;2022-12-18T17:00:56;-4.80;99.90
21635;DHT22;10979;48.306;9.830;2022-12-18T17:03:22;-4.80;99.90
21635;DHT22;10979;48.306;9.830;2022-12-18T17:05:47;-4.80;99.90
21635;DHT22;10979;48.306;9.830;2022-12-18T17:08:13;-4.90;99.90
21635;DHT22;10979;48.306;9.830;2022-12-18T17:10:38;-4.90;99.90
21635;DHT22;10979;48.306;9.830;2022-12-18T17:13:04;-4.80;99.90
21635;DHT22;10979;48.306;9.830;2022-12-18T17:15:30;-4.70;99.90
21635;DHT22;10979;48.306;9.830;2022-12-18T17:17:58;-4.70;99.90
21635;DHT22;10979;48.306;9.830;2022-12-18T17:20:24;-4.80;99.90
21635;DHT22;10979;48.306;9.830;2022-12-18T17:22:49;-4.80;99.90
21635;DHT22;10979;48.306;9.830;2022-12-18T17:25:15;-4.70;99.90
21635;DHT22;10979;48.306;9.830;2022-12-18T17:27:41;-4.70;99.90
21635;DHT22;10979;48.306;9.830;2022-12-18T17:30:07;-4.70;99.90
21635;DHT22;10979;48.306;9.830;2022-12-18T17:32:32;-4.80;99.90
21635;DHT22;10979;48.306;9.830;2022-12-18T17:34:58;-4.80;99.90
21635;DHT22;10979;48.306;9.830;2022-12-18T17:37:23;-4.90;99.90
21635;DHT22;10979;48.306;9.830;2022-12-18T17:39:49;-4.80;99.90
21635;DHT22;10979;48.306;9.830;2022-12-18T17:42:15;-4.80;99.90